createdAt,value
2017-09-03T00:00:16.065Z,30.2
2017-09-03T00:01:15.823Z,30.2
2017-09-03T00:02:16.062Z,30.1
2017-09-03T00:03:15.843Z,30.2
2017-09-03T00:04:18.745Z,30.2
2017-09-03T00:05:20.928Z,30.2
2017-09-03T00:06:18.858Z,30.1
2017-09-03T00:07:21.044Z,30.2
2017-09-03T00:08:16.378Z,30.2
2017-09-03T00:09:21.462Z,30.1
2017-09-03T00:10:21.545Z,30.2
2017-09-03T00:11:21.527Z,30.2
2017-09-03T00:12:16.380Z,30.1
2017-09-03T00:13:21.706Z,30.1
2017-09-03T00:14:19.352Z,30.1
2017-09-03T00:15:16.477Z,30.1
2017-09-03T00:16:21.535Z,30.1
2017-09-03T00:17:16.988Z,30.1
2017-09-03T00:18:17.033Z,30.1
2017-09-03T00:19:16.793Z,30.1
2017-09-03T00:20:16.769Z,30.1
2017-09-03T00:21:17.146Z,30.1
2017-09-03T00:22:22.231Z,30.1
2017-09-03T00:23:17.261Z,30.1
2017-09-03T00:24:20.139Z,30.1
2017-09-03T00:25:17.042Z,30.1
2017-09-03T00:26:20.211Z,30.1
2017-09-03T00:27:20.315Z,30.1
2017-09-03T00:28:17.153Z,30.1
2017-09-03T00:29:20.319Z,30.1
2017-09-03T00:30:20.408Z,30.1
2017-09-03T00:31:22.327Z,30.1
2017-09-03T00:32:20.180Z,30.1
2017-09-03T00:33:22.724Z,30.1
2017-09-03T00:34:22.485Z,30.1
2017-09-03T00:35:17.924Z,30.1
2017-09-03T00:36:20.496Z,30.1
2017-09-03T00:37:20.571Z,30.1
2017-09-03T00:38:23.093Z,30.1
2017-09-03T00:39:18.140Z,30.1
2017-09-03T00:40:18.515Z,30.1
2017-09-03T00:41:17.901Z,30.1
2017-09-03T00:42:23.285Z,30.1
2017-09-03T00:43:23.035Z,30.1
2017-09-03T00:44:18.042Z,30.1
2017-09-03T00:45:18.122Z,30.1
2017-09-03T00:46:23.142Z,30
2017-09-03T00:47:18.540Z,30
2017-09-03T00:48:23.543Z,30.1
2017-09-03T00:49:18.358Z,30.1
2017-09-03T00:50:21.238Z,30.1
2017-09-03T00:51:18.449Z,30.1
2017-09-03T00:52:23.507Z,30
2017-09-03T00:53:23.558Z,30
2017-09-03T00:54:22.437Z,30
2017-09-03T00:55:24.020Z,30
2017-09-03T00:56:18.803Z,30
2017-09-03T00:57:21.652Z,30
2017-09-03T00:58:22.021Z,30
2017-09-03T00:59:19.492Z,30
2017-09-03T01:00:19.305Z,30
2017-09-03T01:01:19.056Z,30
2017-09-03T01:02:19.422Z,30
2017-09-03T01:03:22.300Z,30
2017-09-03T01:04:24.139Z,30
2017-09-03T01:05:19.195Z,30
2017-09-03T01:06:22.436Z,30
2017-09-03T01:07:22.441Z,30
2017-09-03T01:08:19.288Z,30
2017-09-03T01:09:19.269Z,30
2017-09-03T01:10:19.322Z,30
2017-09-03T01:11:19.757Z,30
2017-09-03T01:12:24.481Z,30
2017-09-03T01:13:22.734Z,30
2017-09-03T01:14:22.540Z,30
2017-09-03T01:15:22.607Z,30
2017-09-03T01:16:25.740Z,30
2017-09-03T01:17:20.167Z,30
2017-09-03T01:18:25.209Z,30
2017-09-03T01:19:20.252Z,30
2017-09-03T01:20:19.950Z,30
2017-09-03T01:21:23.209Z,30
2017-09-03T01:22:23.253Z,30
2017-09-03T01:23:20.520Z,29.9
2017-09-03T01:24:25.625Z,30
2017-09-03T01:25:20.996Z,30
2017-09-03T01:26:25.657Z,30
2017-09-03T01:27:20.408Z,30
2017-09-03T01:28:21.287Z,30
2017-09-03T01:29:20.711Z,30
2017-09-03T01:30:20.503Z,30
2017-09-03T01:31:20.910Z,30
2017-09-03T01:32:20.936Z,29.9
2017-09-03T01:33:20.987Z,30
2017-09-03T01:34:25.727Z,30
2017-09-03T01:35:21.097Z,30
2017-09-03T01:36:20.915Z,29.9
2017-09-03T01:37:23.812Z,30
2017-09-03T01:38:28.063Z,30
2017-09-03T01:39:23.834Z,30
2017-09-03T01:40:23.882Z,29.9
2017-09-03T01:41:24.299Z,29.9
2017-09-03T01:42:21.475Z,29.9
2017-09-03T01:43:21.257Z,29.9
2017-09-03T01:44:21.548Z,29.9
2017-09-03T01:45:21.252Z,29.9
2017-09-03T01:46:21.328Z,29.9
2017-09-03T01:47:21.612Z,29.9
2017-09-03T01:48:21.413Z,29.9
2017-09-03T01:49:21.755Z,29.9
2017-09-03T01:50:21.519Z,29.9
2017-09-03T01:51:24.997Z,29.9
2017-09-03T01:52:21.904Z,29.9
2017-09-03T01:53:25.895Z,29.9
2017-09-03T01:54:21.776Z,29.9
2017-09-03T01:55:25.666Z,29.9
2017-09-03T01:56:22.145Z,29.9
2017-09-03T01:57:24.755Z,29.9
2017-09-03T01:58:27.183Z,29.9
2017-09-03T01:59:24.769Z,29.9
2017-09-03T02:00:22.241Z,29.9
2017-09-03T02:01:25.246Z,29.9
2017-09-03T02:02:27.439Z,29.9
2017-09-03T02:03:22.083Z,29.9
2017-09-03T02:04:27.381Z,29.9
2017-09-03T02:05:26.996Z,29.9
2017-09-03T02:06:23.722Z,29.9
2017-09-03T02:07:27.609Z,29.9
2017-09-03T02:08:27.777Z,29.9
2017-09-03T02:09:28.691Z,29.9
2017-09-03T02:10:22.689Z,29.9
2017-09-03T02:11:25.713Z,29.9
2017-09-03T02:12:22.881Z,29.9
2017-09-03T02:13:28.079Z,29.9
2017-09-03T02:14:27.704Z,29.9
2017-09-03T02:15:25.665Z,29.8
2017-09-03T02:16:23.007Z,29.9
2017-09-03T02:17:28.177Z,29.8
2017-09-03T02:18:25.724Z,29.8
2017-09-03T02:19:23.009Z,29.9
2017-09-03T02:20:29.132Z,29.9
2017-09-03T02:21:23.160Z,29.9
2017-09-03T02:22:24.049Z,29.8
2017-09-03T02:23:23.086Z,29.8
2017-09-03T02:24:23.217Z,29.8
2017-09-03T02:25:23.415Z,29.8
2017-09-03T02:26:28.276Z,29.8
2017-09-03T02:27:23.347Z,29.8
2017-09-03T02:28:26.541Z,29.8
2017-09-03T02:29:23.654Z,29.8
2017-09-03T02:30:26.786Z,29.8
2017-09-03T02:31:26.349Z,29.8
2017-09-03T02:32:23.799Z,29.8
2017-09-03T02:33:23.627Z,29.8
2017-09-03T02:34:26.440Z,29.8
2017-09-03T02:35:23.649Z,29.8
2017-09-03T02:36:29.014Z,29.8
2017-09-03T02:37:24.068Z,29.8
2017-09-03T02:38:29.148Z,29.8
2017-09-03T02:39:23.939Z,29.8
2017-09-03T02:40:28.993Z,29.8
2017-09-03T02:41:29.389Z,29.8
2017-09-03T02:42:24.021Z,29.8
2017-09-03T02:43:29.119Z,29.8
2017-09-03T02:44:24.525Z,29.8
2017-09-03T02:45:27.042Z,29.8
2017-09-03T02:46:24.235Z,29.8
2017-09-03T02:47:24.288Z,29.8
2017-09-03T02:48:29.295Z,29.8
2017-09-03T02:49:24.336Z,29.8
2017-09-03T02:50:24.739Z,29.8
2017-09-03T02:51:24.426Z,29.8
2017-09-03T02:52:24.813Z,29.8
2017-09-03T02:53:29.646Z,29.8
2017-09-03T02:54:24.608Z,29.8
2017-09-03T02:55:25.130Z,29.8
2017-09-03T02:56:27.567Z,29.8
2017-09-03T02:57:30.057Z,29.8
2017-09-03T02:58:25.651Z,29.8
2017-09-03T02:59:25.122Z,29.8
2017-09-03T03:00:29.877Z,29.8
2017-09-03T03:01:28.123Z,29.8
2017-09-03T03:02:25.045Z,29.8
2017-09-03T03:03:28.292Z,29.8
2017-09-03T03:04:30.494Z,29.8
2017-09-03T03:05:28.039Z,29.8
2017-09-03T03:06:28.068Z,29.8
2017-09-03T03:07:27.764Z,29.8
2017-09-03T03:08:26.579Z,29.8
2017-09-03T03:09:30.285Z,29.8
2017-09-03T03:10:28.656Z,29.8
2017-09-03T03:11:31.965Z,29.8
2017-09-03T03:12:26.462Z,29.8
2017-09-03T03:13:30.708Z,29.8
2017-09-03T03:14:30.976Z,29.8
2017-09-03T03:15:26.056Z,29.8
2017-09-03T03:16:28.630Z,29.7
2017-09-03T03:17:29.004Z,29.7
2017-09-03T03:18:31.185Z,29.7
2017-09-03T03:19:28.819Z,29.7
2017-09-03T03:20:26.366Z,29.7
2017-09-03T03:21:26.456Z,29.7
2017-09-03T03:22:26.472Z,29.8
2017-09-03T03:23:31.131Z,29.7
2017-09-03T03:24:31.177Z,29.8
2017-09-03T03:25:26.553Z,29.7
2017-09-03T03:26:31.635Z,29.8
2017-09-03T03:27:31.620Z,29.8
2017-09-03T03:28:26.443Z,29.7
2017-09-03T03:29:31.726Z,29.8
2017-09-03T03:30:26.789Z,29.8
2017-09-03T03:31:26.820Z,29.8
2017-09-03T03:32:26.607Z,29.7
2017-09-03T03:33:26.679Z,29.8
2017-09-03T03:34:26.619Z,29.8
2017-09-03T03:35:27.814Z,29.7
2017-09-03T03:36:29.609Z,29.8
2017-09-03T03:37:26.816Z,29.8
2017-09-03T03:38:27.175Z,29.8
2017-09-03T03:39:26.943Z,29.8
2017-09-03T03:40:26.935Z,29.7
2017-09-03T03:41:27.028Z,29.7
2017-09-03T03:42:29.922Z,29.8
2017-09-03T03:43:32.093Z,29.8
2017-09-03T03:44:27.179Z,29.7
2017-09-03T03:45:30.400Z,29.7
2017-09-03T03:46:32.257Z,29.7
2017-09-03T03:47:32.651Z,29.7
2017-09-03T03:48:28.389Z,29.7
2017-09-03T03:49:28.301Z,29.7
2017-09-03T03:50:32.723Z,29.7
2017-09-03T03:51:27.785Z,29.7
2017-09-03T03:52:32.899Z,29.7
2017-09-03T03:53:27.725Z,29.7
2017-09-03T03:54:27.756Z,29.7
2017-09-03T03:55:27.773Z,29.7
2017-09-03T03:56:32.762Z,29.7
2017-09-03T03:57:33.105Z,29.7
2017-09-03T03:58:27.882Z,29.7
2017-09-03T03:59:28.011Z,29.7
2017-09-03T04:00:31.602Z,29.7
2017-09-03T04:01:28.385Z,29.7
2017-09-03T04:02:33.493Z,29.7
2017-09-03T04:03:28.542Z,29.7
2017-09-03T04:04:28.600Z,29.7
2017-09-03T04:05:28.344Z,29.7
2017-09-03T04:06:31.262Z,29.7
2017-09-03T04:07:28.457Z,29.7
2017-09-03T04:08:28.843Z,29.7
2017-09-03T04:09:33.606Z,29.7
2017-09-03T04:10:31.803Z,29.7
2017-09-03T04:11:33.603Z,29.7
2017-09-03T04:12:29.004Z,29.7
2017-09-03T04:13:31.628Z,29.7
2017-09-03T04:14:31.752Z,29.7
2017-09-03T04:15:31.781Z,29.7
2017-09-03T04:16:33.961Z,29.7
2017-09-03T04:17:29.385Z,29.7
2017-09-03T04:18:34.031Z,29.7
2017-09-03T04:19:31.965Z,29.7
2017-09-03T04:20:29.414Z,29.7
2017-09-03T04:21:32.369Z,29.6
2017-09-03T04:22:32.412Z,29.7
2017-09-03T04:23:29.641Z,29.6
2017-09-03T04:24:34.317Z,29.6
2017-09-03T04:25:34.347Z,29.6
2017-09-03T04:26:29.776Z,29.6
2017-09-03T04:27:32.416Z,29.6
2017-09-03T04:28:29.890Z,29.6
2017-09-03T04:29:32.928Z,29.6
2017-09-03T04:30:35.004Z,29.6
2017-09-03T04:31:32.654Z,29.6
2017-09-03T04:32:33.048Z,29.6
2017-09-03T04:33:32.815Z,29.6
2017-09-03T04:34:35.275Z,29.6
2017-09-03T04:35:30.357Z,29.6
2017-09-03T04:36:33.296Z,29.6
2017-09-03T04:37:35.185Z,29.6
2017-09-03T04:38:30.568Z,29.6
2017-09-03T04:39:35.300Z,29.6
2017-09-03T04:40:35.671Z,29.6
2017-09-03T04:41:30.715Z,29.6
2017-09-03T04:42:35.698Z,29.6
2017-09-03T04:43:30.451Z,29.6
2017-09-03T04:44:35.805Z,29.6
2017-09-03T04:45:35.565Z,29.6
2017-09-03T04:46:30.644Z,29.6
2017-09-03T04:47:30.745Z,29.6
2017-09-03T04:48:33.927Z,29.6
2017-09-03T04:49:30.791Z,29.6
2017-09-03T04:50:30.880Z,29.6
2017-09-03T04:51:33.804Z,29.6
2017-09-03T04:52:35.952Z,29.6
2017-09-03T04:53:33.912Z,29.6
2017-09-03T04:54:33.982Z,29.6
2017-09-03T04:55:34.348Z,29.6
2017-09-03T04:56:36.531Z,29.6
2017-09-03T04:57:31.337Z,29.6
2017-09-03T04:58:31.426Z,29.6
2017-09-03T04:59:36.468Z,29.6
2017-09-03T05:00:31.590Z,29.6
2017-09-03T05:01:36.979Z,29.6
2017-09-03T05:02:34.570Z,29.6
2017-09-03T05:03:36.712Z,29.6
2017-09-03T05:04:31.723Z,29.6
2017-09-03T05:05:34.958Z,29.6
2017-09-03T05:06:32.165Z,29.6
2017-09-03T05:07:31.981Z,29.6
2017-09-03T05:08:32.347Z,29.6
2017-09-03T05:09:37.044Z,29.6
2017-09-03T05:10:37.072Z,29.6
2017-09-03T05:11:35.018Z,29.6
2017-09-03T05:12:35.065Z,29.6
2017-09-03T05:13:35.111Z,29.6
2017-09-03T05:14:32.709Z,29.6
2017-09-03T05:15:35.229Z,29.6
2017-09-03T05:16:37.398Z,29.6
2017-09-03T05:17:32.508Z,29.6
2017-09-03T05:18:35.751Z,29.6
2017-09-03T05:19:32.670Z,29.6
2017-09-03T05:20:33.087Z,29.6
2017-09-03T05:21:38.102Z,29.6
2017-09-03T05:22:38.085Z,29.6
2017-09-03T05:23:32.946Z,29.6
2017-09-03T05:24:38.226Z,29.6
2017-09-03T05:25:33.035Z,29.6
2017-09-03T05:26:35.976Z,29.6
2017-09-03T05:27:33.454Z,29.6
2017-09-03T05:28:33.208Z,29.6
2017-09-03T05:29:36.454Z,29.6
2017-09-03T05:30:33.321Z,29.6
2017-09-03T05:31:33.694Z,29.6
2017-09-03T05:32:33.836Z,29.6
2017-09-03T05:33:33.548Z,29.6
2017-09-03T05:34:33.883Z,29.6
2017-09-03T05:35:36.840Z,29.6
2017-09-03T05:36:33.934Z,29.7
2017-09-03T05:37:36.566Z,29.6
2017-09-03T05:38:36.955Z,29.7
2017-09-03T05:39:34.160Z,29.7
2017-09-03T05:40:38.950Z,29.7
2017-09-03T05:41:34.312Z,29.7
2017-09-03T05:42:34.133Z,29.7
2017-09-03T05:43:37.303Z,29.7
2017-09-03T05:44:34.203Z,29.7
2017-09-03T05:45:37.108Z,29.7
2017-09-03T05:46:34.258Z,29.7
2017-09-03T05:47:34.328Z,29.7
2017-09-03T05:48:37.617Z,29.7
2017-09-03T05:49:34.732Z,29.7
2017-09-03T05:50:34.532Z,29.7
2017-09-03T05:51:39.488Z,29.7
2017-09-03T05:52:37.441Z,29.7
2017-09-03T05:53:34.920Z,29.7
2017-09-03T05:54:37.816Z,29.7
2017-09-03T05:55:34.990Z,29.8
2017-09-03T05:56:39.726Z,29.8
2017-09-03T05:57:37.983Z,29.8
2017-09-03T05:58:35.142Z,29.8
2017-09-03T05:59:34.866Z,29.8
2017-09-03T06:00:35.278Z,29.8
2017-09-03T06:01:38.543Z,29.8
2017-09-03T06:02:35.112Z,29.8
2017-09-03T06:03:40.036Z,29.8
2017-09-03T06:04:35.085Z,29.8
2017-09-03T06:05:35.157Z,29.8
2017-09-03T06:06:40.201Z,29.8
2017-09-03T06:07:40.525Z,29.8
2017-09-03T06:08:40.597Z,29.8
2017-09-03T06:09:35.316Z,29.9
2017-09-03T06:10:40.347Z,29.8
2017-09-03T06:11:38.271Z,29.9
2017-09-03T06:12:35.818Z,29.9
2017-09-03T06:13:36.152Z,29.9
2017-09-03T06:14:38.792Z,29.9
2017-09-03T06:15:35.708Z,29.9
2017-09-03T06:16:38.559Z,29.9
2017-09-03T06:17:35.728Z,29.9
2017-09-03T06:18:35.835Z,29.9
2017-09-03T06:19:36.164Z,29.9
2017-09-03T06:20:36.243Z,29.9
2017-09-03T06:21:36.258Z,30
2017-09-03T06:22:36.264Z,29.9
2017-09-03T06:23:36.030Z,30
2017-09-03T06:24:36.380Z,30
2017-09-03T06:25:36.433Z,30
2017-09-03T06:26:41.526Z,30
2017-09-03T06:27:41.267Z,30
2017-09-03T06:28:41.304Z,30
2017-09-03T06:29:36.422Z,30
2017-09-03T06:30:41.708Z,30
2017-09-03T06:31:42.179Z,30
2017-09-03T06:32:41.784Z,30
2017-09-03T06:33:41.525Z,30
2017-09-03T06:34:41.560Z,30
2017-09-03T06:35:39.503Z,30
2017-09-03T06:36:41.725Z,30
2017-09-03T06:37:37.359Z,30
2017-09-03T06:38:37.129Z,30
2017-09-03T06:39:42.238Z,30.1
2017-09-03T06:40:36.954Z,30.1
2017-09-03T06:41:39.870Z,30.1
2017-09-03T06:42:37.100Z,30.1
2017-09-03T06:43:37.407Z,30.1
2017-09-03T06:44:37.506Z,30.1
2017-09-03T06:45:40.490Z,30.1
2017-09-03T06:46:37.317Z,30.2
2017-09-03T06:47:37.349Z,30.2
2017-09-03T06:48:37.731Z,30.2
2017-09-03T06:49:38.239Z,30.2
2017-09-03T06:50:40.373Z,30.2
2017-09-03T06:51:42.542Z,30.2
2017-09-03T06:52:37.973Z,30.2
2017-09-03T06:53:37.984Z,30.2
2017-09-03T06:54:40.561Z,30.2
2017-09-03T06:55:41.265Z,30.3
2017-09-03T06:56:41.053Z,30.3
2017-09-03T06:57:40.844Z,30.3
2017-09-03T06:58:43.281Z,30.3
2017-09-03T06:59:38.399Z,30.3
2017-09-03T07:00:40.990Z,30.3
2017-09-03T07:01:41.264Z,30.3
2017-09-03T07:02:41.350Z,30.3
2017-09-03T07:03:38.591Z,30.3
2017-09-03T07:04:38.608Z,30.3
2017-09-03T07:05:38.646Z,30.4
2017-09-03T07:06:43.281Z,30.3
2017-09-03T07:07:43.738Z,30.4
2017-09-03T07:08:41.604Z,30.4
2017-09-03T07:09:43.465Z,30.4
2017-09-03T07:10:38.556Z,30.4
2017-09-03T07:11:41.842Z,30.4
2017-09-03T07:12:39.034Z,30.4
2017-09-03T07:13:39.291Z,30.4
2017-09-03T07:14:43.749Z,30.5
2017-09-03T07:15:39.082Z,30.5
2017-09-03T07:16:38.775Z,30.5
2017-09-03T07:17:42.021Z,30.5
2017-09-03T07:18:38.889Z,30.5
2017-09-03T07:19:42.449Z,30.5
2017-09-03T07:20:41.863Z,30.5
2017-09-03T07:21:42.218Z,30.6
2017-09-03T07:22:42.310Z,30.6
2017-09-03T07:23:44.175Z,30.6
2017-09-03T07:24:39.540Z,30.6
2017-09-03T07:25:44.581Z,30.6
2017-09-03T07:26:44.642Z,30.6
2017-09-03T07:27:39.726Z,30.6
2017-09-03T07:28:39.538Z,30.6
2017-09-03T07:29:39.544Z,30.6
2017-09-03T07:30:44.830Z,30.7
2017-09-03T07:31:40.234Z,30.7
2017-09-03T07:32:39.974Z,30.7
2017-09-03T07:33:40.028Z,30.7
2017-09-03T07:34:45.163Z,30.7
2017-09-03T07:35:43.070Z,30.7
2017-09-03T07:36:43.120Z,30.8
2017-09-03T07:37:40.172Z,30.8
2017-09-03T07:38:42.823Z,30.8
2017-09-03T07:39:42.899Z,30.8
2017-09-03T07:40:40.122Z,30.8
2017-09-03T07:41:45.419Z,30.8
2017-09-03T07:42:40.219Z,30.8
2017-09-03T07:43:43.727Z,30.9
2017-09-03T07:44:40.287Z,30.9
2017-09-03T07:45:43.561Z,30.9
2017-09-03T07:46:45.785Z,30.9
2017-09-03T07:47:45.506Z,30.9
2017-09-03T07:48:40.587Z,30.9
2017-09-03T07:49:45.866Z,30.9
2017-09-03T07:50:40.635Z,31
2017-09-03T07:51:43.870Z,31
2017-09-03T07:52:45.742Z,31
2017-09-03T07:53:41.121Z,31
2017-09-03T07:54:45.884Z,31
2017-09-03T07:55:41.548Z,31
2017-09-03T07:56:40.958Z,31
2017-09-03T07:57:46.289Z,31
2017-09-03T07:58:41.402Z,31
2017-09-03T07:59:41.453Z,31
2017-09-03T08:00:44.394Z,31
2017-09-03T08:01:46.844Z,31
2017-09-03T08:02:46.305Z,31
2017-09-03T08:03:46.328Z,31
2017-09-03T08:04:41.687Z,31
2017-09-03T08:05:46.715Z,31
2017-09-03T08:06:41.779Z,31
2017-09-03T08:07:47.060Z,31
2017-09-03T08:08:41.846Z,31
2017-09-03T08:09:44.489Z,31
2017-09-03T08:10:44.886Z,31
2017-09-03T08:11:42.085Z,31
2017-09-03T08:12:47.143Z,31
2017-09-03T08:13:42.231Z,31
2017-09-03T08:14:42.231Z,31
2017-09-03T08:15:42.283Z,31
2017-09-03T08:16:47.296Z,31
2017-09-03T08:17:42.402Z,31
2017-09-03T08:18:47.463Z,31
2017-09-03T08:19:45.362Z,31
2017-09-03T08:20:42.284Z,31
2017-09-03T08:21:47.373Z,31
2017-09-03T08:22:47.640Z,31.1
2017-09-03T08:23:45.246Z,31.1
2017-09-03T08:24:42.756Z,31.1
2017-09-03T08:25:42.762Z,31.2
2017-09-03T08:26:42.570Z,31.2
2017-09-03T08:27:47.562Z,31.2
2017-09-03T08:28:45.459Z,31.2
2017-09-03T08:29:43.065Z,31.2
2017-09-03T08:30:42.840Z,31.2
2017-09-03T08:31:46.307Z,31.2
2017-09-03T08:32:46.074Z,31.2
2017-09-03T08:33:42.934Z,31.2
2017-09-03T08:34:43.261Z,31.2
2017-09-03T08:35:43.360Z,31.2
2017-09-03T08:36:43.156Z,31.2
2017-09-03T08:37:48.708Z,31.1
2017-09-03T08:38:48.150Z,31.1
2017-09-03T08:39:43.583Z,31.1
2017-09-03T08:40:46.189Z,31.1
2017-09-03T08:41:43.426Z,31.1
2017-09-03T08:42:46.618Z,31.1
2017-09-03T08:43:49.128Z,31
2017-09-03T08:44:46.709Z,31
2017-09-03T08:45:43.618Z,31
2017-09-03T08:46:46.906Z,31
2017-09-03T08:47:46.560Z,31
2017-09-03T08:48:43.764Z,31
2017-09-03T08:49:44.148Z,31
2017-09-03T08:50:44.241Z,31
2017-09-03T08:51:49.303Z,31
2017-09-03T08:52:47.293Z,31
2017-09-03T08:53:44.105Z,31
2017-09-03T08:54:44.499Z,30.9
2017-09-03T08:55:44.805Z,30.9
2017-09-03T08:56:44.587Z,30.9
2017-09-03T08:57:49.234Z,30.9
2017-09-03T08:58:47.161Z,30.9
2017-09-03T08:59:44.625Z,30.9
2017-09-03T09:00:49.357Z,30.9
2017-09-03T09:01:45.288Z,30.9
2017-09-03T09:02:49.462Z,30.9
2017-09-03T09:03:49.886Z,30.9
2017-09-03T09:04:44.504Z,30.9
2017-09-03T09:05:45.037Z,30.9
2017-09-03T09:06:50.057Z,30.9
2017-09-03T09:07:45.317Z,30.9
2017-09-03T09:08:44.789Z,30.9
2017-09-03T09:09:45.179Z,30.9
2017-09-03T09:10:44.926Z,30.9
2017-09-03T09:11:49.964Z,30.8
2017-09-03T09:12:45.315Z,30.8
2017-09-03T09:13:45.686Z,30.8
2017-09-03T09:14:45.193Z,30.8
2017-09-03T09:15:50.617Z,30.8
2017-09-03T09:16:45.329Z,30.8
2017-09-03T09:17:48.283Z,30.8
2017-09-03T09:18:48.327Z,30.8
2017-09-03T09:19:48.549Z,30.8
2017-09-03T09:20:50.424Z,30.8
2017-09-03T09:21:45.424Z,30.8
2017-09-03T09:22:50.737Z,30.8
2017-09-03T09:23:48.712Z,30.8
2017-09-03T09:24:48.733Z,30.8
2017-09-03T09:25:49.056Z,30.8
2017-09-03T09:26:48.846Z,30.8
2017-09-03T09:27:51.046Z,30.8
2017-09-03T09:28:48.922Z,30.8
2017-09-03T09:29:45.817Z,30.8
2017-09-03T09:30:51.151Z,30.8
2017-09-03T09:31:46.244Z,30.8
2017-09-03T09:32:46.109Z,30.8
2017-09-03T09:33:46.154Z,30.8
2017-09-03T09:34:48.995Z,30.8
2017-09-03T09:35:46.511Z,30.8
2017-09-03T09:36:46.240Z,30.8
2017-09-03T09:37:46.908Z,30.8
2017-09-03T09:38:51.698Z,30.8
2017-09-03T09:39:46.786Z,30.8
2017-09-03T09:40:51.459Z,30.8
2017-09-03T09:41:51.464Z,30.8
2017-09-03T09:42:46.528Z,30.8
2017-09-03T09:43:49.739Z,30.8
2017-09-03T09:44:46.952Z,30.8
2017-09-03T09:45:51.692Z,30.7
2017-09-03T09:46:47.148Z,30.8
2017-09-03T09:47:49.755Z,30.8
2017-09-03T09:48:51.916Z,30.8
2017-09-03T09:49:47.552Z,30.7
2017-09-03T09:50:47.397Z,30.7
2017-09-03T09:51:50.402Z,30.7
2017-09-03T09:52:50.410Z,30.7
2017-09-03T09:53:47.495Z,30.7
2017-09-03T09:54:47.301Z,30.7
2017-09-03T09:55:50.594Z,30.7
2017-09-03T09:56:47.717Z,30.7
2017-09-03T09:57:50.269Z,30.7
2017-09-03T09:58:47.480Z,30.7
2017-09-03T09:59:50.618Z,30.7
2017-09-03T10:00:47.795Z,30.7
2017-09-03T10:01:53.137Z,30.7
2017-09-03T10:02:47.913Z,30.7
2017-09-03T10:03:48.042Z,30.7
2017-09-03T10:04:53.050Z,30.7
2017-09-03T10:05:48.118Z,30.7
2017-09-03T10:06:47.888Z,30.7
2017-09-03T10:07:53.437Z,30.7
2017-09-03T10:08:47.917Z,30.7
2017-09-03T10:09:47.995Z,30.7
2017-09-03T10:10:48.040Z,30.7
2017-09-03T10:11:51.283Z,30.7
2017-09-03T10:12:51.370Z,30.7
2017-09-03T10:13:48.442Z,30.7
2017-09-03T10:14:48.246Z,30.7
2017-09-03T10:15:51.465Z,30.7
2017-09-03T10:16:48.340Z,30.7
2017-09-03T10:17:51.576Z,30.7
2017-09-03T10:18:48.481Z,30.7
2017-09-03T10:19:49.076Z,30.7
2017-09-03T10:20:48.834Z,30.7
2017-09-03T10:21:48.872Z,30.7
2017-09-03T10:22:48.996Z,30.7
2017-09-03T10:23:54.011Z,30.7
2017-09-03T10:24:49.078Z,30.7
2017-09-03T10:25:49.125Z,30.7
2017-09-03T10:26:49.173Z,30.7
2017-09-03T10:27:54.179Z,30.7
2017-09-03T10:28:54.186Z,30.7
2017-09-03T10:29:49.235Z,30.7
2017-09-03T10:30:51.792Z,30.7
2017-09-03T10:31:54.552Z,30.7
2017-09-03T10:32:54.064Z,30.7
2017-09-03T10:33:54.071Z,30.7
2017-09-03T10:34:49.173Z,30.7
2017-09-03T10:35:49.190Z,30.7
2017-09-03T10:36:49.236Z,30.7
2017-09-03T10:37:49.577Z,30.7
2017-09-03T10:38:52.524Z,30.7
2017-09-03T10:39:49.755Z,30.7
2017-09-03T10:40:54.448Z,30.7
2017-09-03T10:41:54.832Z,30.7
2017-09-03T10:42:49.869Z,30.7
2017-09-03T10:43:50.082Z,30.7
2017-09-03T10:44:54.870Z,30.7
2017-09-03T10:45:54.917Z,30.7
2017-09-03T10:46:49.725Z,30.7
2017-09-03T10:47:49.716Z,30.7
2017-09-03T10:48:55.453Z,30.7
2017-09-03T10:49:55.157Z,30.7
2017-09-03T10:50:52.818Z,30.7
2017-09-03T10:51:49.962Z,30.7
2017-09-03T10:52:50.333Z,30.7
2017-09-03T10:53:55.068Z,30.7
2017-09-03T10:54:53.003Z,30.7
2017-09-03T10:55:50.812Z,30.7
2017-09-03T10:56:55.244Z,30.7
2017-09-03T10:57:50.647Z,30.7
2017-09-03T10:58:50.396Z,30.7
2017-09-03T10:59:55.426Z,30.7
2017-09-03T11:00:50.828Z,30.7
2017-09-03T11:01:56.120Z,30.7
2017-09-03T11:02:55.613Z,30.7
2017-09-03T11:03:55.682Z,30.7
2017-09-03T11:04:50.832Z,30.7
2017-09-03T11:05:51.215Z,30.7
2017-09-03T11:06:51.329Z,30.7
2017-09-03T11:07:56.240Z,30.7
2017-09-03T11:08:51.344Z,30.7
2017-09-03T11:09:56.343Z,30.7
2017-09-03T11:10:56.406Z,30.7
2017-09-03T11:11:51.240Z,30.7
2017-09-03T11:12:56.248Z,30.7
2017-09-03T11:13:51.587Z,30.7
2017-09-03T11:14:51.624Z,30.7
2017-09-03T11:15:56.701Z,30.7
2017-09-03T11:16:54.686Z,30.7
2017-09-03T11:17:54.766Z,30.7
2017-09-03T11:18:54.855Z,30.7
2017-09-03T11:19:55.176Z,30.7
2017-09-03T11:20:56.777Z,30.7
2017-09-03T11:21:54.668Z,30.7
2017-09-03T11:22:52.210Z,30.7
2017-09-03T11:23:57.210Z,30.7
2017-09-03T11:24:52.340Z,30.7
2017-09-03T11:25:52.621Z,30.7
2017-09-03T11:26:52.162Z,30.7
2017-09-03T11:27:56.716Z,30.7
2017-09-03T11:28:57.221Z,30.7
2017-09-03T11:29:57.299Z,30.7
2017-09-03T11:30:55.536Z,30.7
2017-09-03T11:31:57.674Z,30.7
2017-09-03T11:32:52.782Z,30.7
2017-09-03T11:33:55.627Z,30.7
2017-09-03T11:34:55.734Z,30.7
2017-09-03T11:35:52.552Z,30.7
2017-09-03T11:36:57.871Z,30.7
2017-09-03T11:37:55.791Z,30.7
2017-09-03T11:38:52.674Z,30.7
2017-09-03T11:39:53.028Z,30.7
2017-09-03T11:40:58.100Z,30.7
2017-09-03T11:41:52.865Z,30.7
2017-09-03T11:42:56.103Z,30.7
2017-09-03T11:43:56.417Z,30.7
2017-09-03T11:44:56.234Z,30.7
2017-09-03T11:45:58.491Z,30.7
2017-09-03T11:46:56.036Z,30.7
2017-09-03T11:47:53.239Z,30.7
2017-09-03T11:48:58.201Z,30.7
2017-09-03T11:49:56.748Z,30.7
2017-09-03T11:50:53.365Z,30.7
2017-09-03T11:51:53.715Z,30.7
2017-09-03T11:52:53.820Z,30.7
2017-09-03T11:53:56.455Z,30.7
2017-09-03T11:54:53.619Z,30.7
2017-09-03T11:55:54.035Z,30.7
2017-09-03T11:56:53.733Z,30.7
2017-09-03T11:57:53.803Z,30.7
2017-09-03T11:58:54.197Z,30.7
2017-09-03T11:59:59.247Z,30.7
2017-09-03T12:00:56.743Z,30.7
2017-09-03T12:01:59.248Z,30.7
2017-09-03T12:02:54.055Z,30.7
2017-09-03T12:03:54.458Z,30.7
2017-09-03T12:04:54.475Z,30.7
2017-09-03T12:05:54.522Z,30.7
2017-09-03T12:06:54.210Z,30.7
2017-09-03T12:07:54.745Z,30.7
2017-09-03T12:08:54.517Z,30.7
2017-09-03T12:09:59.560Z,30.7
2017-09-03T12:10:57.208Z,30.7
2017-09-03T12:11:54.404Z,30.7
2017-09-03T12:12:57.354Z,30.7
2017-09-03T12:13:54.847Z,30.7
2017-09-03T12:14:57.757Z,30.7
2017-09-03T12:15:54.999Z,30.7
2017-09-03T12:16:55.037Z,30.7
2017-09-03T12:17:59.694Z,30.7
2017-09-03T12:18:55.090Z,30.7
2017-09-03T12:19:58.284Z,30.7
2017-09-03T12:20:55.205Z,30.7
2017-09-03T12:22:00.200Z,30.7
2017-09-03T12:23:00.270Z,30.7
2017-09-03T12:23:55.074Z,30.7
2017-09-03T12:24:55.165Z,30.7
2017-09-03T12:25:55.773Z,30.7
2017-09-03T12:26:55.577Z,30.7
2017-09-03T12:27:58.194Z,30.7
2017-09-03T12:28:58.287Z,30.7
2017-09-03T12:29:55.729Z,30.7
2017-09-03T12:30:58.626Z,30.7
2017-09-03T12:31:55.759Z,30.7
2017-09-03T12:32:55.851Z,30.7
2017-09-03T12:34:00.869Z,30.7
2017-09-03T12:34:58.788Z,30.7
2017-09-03T12:35:58.884Z,30.7
2017-09-03T12:36:58.893Z,30.7
2017-09-03T12:37:56.377Z,30.7
2017-09-03T12:38:56.108Z,30.7
2017-09-03T12:39:58.672Z,30.7
2017-09-03T12:40:58.693Z,30.7
2017-09-03T12:42:00.919Z,30.7
2017-09-03T12:42:56.229Z,30.7
2017-09-03T12:43:56.183Z,30.7
2017-09-03T12:44:55.900Z,30.7
2017-09-03T12:45:58.836Z,30.7
2017-09-03T12:47:01.006Z,30.7
2017-09-03T12:47:56.353Z,30.7
2017-09-03T12:48:56.451Z,30.7
2017-09-03T12:49:59.619Z,30.7
2017-09-03T12:50:56.246Z,30.7
2017-09-03T12:51:56.284Z,30.7
2017-09-03T12:52:56.242Z,30.7
2017-09-03T12:54:01.612Z,30.7
2017-09-03T12:55:01.359Z,30.7
2017-09-03T12:56:02.030Z,30.7
2017-09-03T12:56:56.539Z,30.7
2017-09-03T12:58:01.897Z,30.7
2017-09-03T12:58:57.025Z,30.7
2017-09-03T12:59:57.062Z,30.7
2017-09-03T13:00:56.818Z,30.7
2017-09-03T13:02:00.053Z,30.7
2017-09-03T13:03:02.291Z,30.7
2017-09-03T13:04:00.263Z,30.7
2017-09-03T13:05:00.016Z,30.7
2017-09-03T13:05:57.417Z,30.7
2017-09-03T13:06:57.193Z,30.7
2017-09-03T13:08:00.637Z,30.7
2017-09-03T13:09:00.463Z,30.7
2017-09-03T13:09:57.274Z,30.7
2017-09-03T13:10:57.429Z,30.7
2017-09-03T13:11:57.428Z,30.7
2017-09-03T13:12:57.711Z,30.7
2017-09-03T13:13:58.098Z,30.7
2017-09-03T13:15:02.580Z,30.7
2017-09-03T13:15:57.618Z,30.7
2017-09-03T13:16:58.024Z,30.7
2017-09-03T13:18:00.628Z,30.7
2017-09-03T13:19:00.999Z,30.7
2017-09-03T13:20:03.835Z,30.7
2017-09-03T13:20:57.917Z,30.7
2017-09-03T13:21:58.301Z,30.7
2017-09-03T13:22:59.787Z,30.7
2017-09-03T13:24:03.145Z,30.7
2017-09-03T13:25:03.248Z,30.7
2017-09-03T13:26:03.507Z,30.7